createdAt,value
2022-11-13T00:00:28.779Z,36.09
2022-11-13T00:01:28.900Z,36.22
2022-11-13T00:02:29.093Z,36.16
2022-11-13T00:03:29.178Z,36.19
2022-11-13T00:04:29.407Z,36.31
2022-11-13T00:05:29.427Z,36.25
2022-11-13T00:06:29.569Z,36.09
2022-11-13T00:07:29.841Z,36.12
2022-11-13T00:08:30.202Z,36.06
2022-11-13T00:09:30.008Z,36.12
2022-11-13T00:10:30.116Z,36.25
2022-11-13T00:11:30.262Z,36.09
2022-11-13T00:12:30.405Z,36.28
2022-11-13T00:13:30.874Z,36.09
2022-11-13T00:14:30.755Z,36.06
2022-11-13T00:15:30.816Z,35.81
2022-11-13T00:16:30.923Z,36.00
2022-11-13T00:17:31.065Z,36.03
2022-11-13T00:18:31.446Z,36.16
2022-11-13T00:19:31.403Z,35.94
2022-11-13T00:20:31.500Z,36.03
2022-11-13T00:21:31.634Z,36.00
2022-11-13T00:22:31.771Z,36.03
2022-11-13T00:23:31.901Z,35.97
2022-11-13T00:24:32.032Z,36.06
2022-11-13T00:25:32.202Z,36.09
2022-11-13T00:26:32.301Z,36.35
2022-11-13T00:27:32.460Z,36.19
2022-11-13T00:28:32.557Z,36.09
2022-11-13T00:29:32.692Z,36.16
2022-11-13T00:30:32.880Z,36.12
2022-11-13T00:31:32.959Z,36.22
2022-11-13T00:32:33.101Z,36.25
2022-11-13T00:34:01.870Z,36.25
2022-11-13T00:34:47.212Z,36.16
2022-11-13T00:35:34.540Z,36.28
2022-11-13T00:36:33.620Z,36.28
2022-11-13T00:37:33.760Z,36.28
2022-11-13T00:38:33.877Z,36.12
2022-11-13T00:39:34.008Z,36.28
2022-11-13T00:40:34.148Z,36.35
2022-11-13T00:41:34.411Z,36.38
2022-11-13T00:42:34.374Z,36.47
2022-11-13T00:43:34.557Z,36.60
2022-11-13T00:44:34.638Z,36.38
2022-11-13T00:45:34.771Z,36.66
2022-11-13T00:46:34.967Z,36.73
2022-11-13T00:47:35.055Z,36.57
2022-11-13T00:48:35.195Z,36.47
2022-11-13T00:49:35.324Z,36.63
2022-11-13T00:50:35.466Z,36.76
2022-11-13T00:51:35.637Z,36.79
2022-11-13T00:52:35.723Z,36.57
2022-11-13T00:53:35.866Z,36.76
2022-11-13T00:54:36.005Z,37.02
2022-11-13T00:55:36.124Z,36.99
2022-11-13T00:56:36.302Z,36.86
2022-11-13T00:57:36.390Z,36.89
2022-11-13T00:58:36.513Z,37.09
2022-11-13T00:59:36.681Z,37.19
2022-11-13T01:00:36.760Z,37.09
2022-11-13T01:01:36.950Z,37.05
2022-11-13T01:02:36.991Z,37.25
2022-11-13T01:03:37.135Z,37.09
2022-11-13T01:04:37.274Z,37.29
2022-11-13T01:05:37.393Z,37.32
2022-11-13T01:06:37.625Z,37.25
2022-11-13T01:07:37.701Z,37.15
2022-11-13T01:08:37.795Z,37.45
2022-11-13T01:09:37.932Z,37.39
2022-11-13T01:10:38.052Z,37.42
2022-11-13T01:11:38.227Z,37.19
2022-11-13T01:12:38.323Z,37.25
2022-11-13T01:13:38.460Z,37.52
2022-11-13T01:14:38.608Z,37.45
2022-11-13T01:15:38.731Z,37.29
2022-11-13T01:16:38.908Z,37.32
2022-11-13T01:17:39.009Z,37.39
2022-11-13T01:18:39.170Z,37.42
2022-11-13T01:19:39.281Z,37.52
2022-11-13T01:20:39.398Z,37.72
2022-11-13T01:21:39.559Z,37.52
2022-11-13T01:22:39.683Z,37.39
2022-11-13T01:23:39.798Z,37.59
2022-11-13T01:24:39.927Z,37.69
2022-11-13T01:25:40.064Z,37.62
2022-11-13T01:26:40.238Z,37.76
2022-11-13T01:27:40.434Z,37.83
2022-11-13T01:28:40.497Z,38.10
2022-11-13T01:29:40.596Z,38.10
2022-11-13T01:30:40.738Z,38.07
2022-11-13T01:31:40.894Z,38.17
2022-11-13T01:32:40.986Z,38.28
2022-11-13T01:33:41.127Z,38.31
2022-11-13T01:34:41.254Z,38.14
2022-11-13T01:35:41.397Z,38.42
2022-11-13T01:36:41.565Z,38.42
2022-11-13T01:37:41.666Z,38.31
2022-11-13T01:38:41.816Z,38.63
2022-11-13T01:39:41.956Z,38.77
2022-11-13T01:40:42.110Z,38.52
2022-11-13T01:41:42.258Z,38.56
2022-11-13T01:42:42.383Z,38.63
2022-11-13T01:43:42.476Z,38.77
2022-11-13T01:44:42.607Z,38.96
2022-11-13T01:45:42.748Z,38.70
2022-11-13T01:46:42.886Z,38.74
2022-11-13T01:47:43.077Z,38.92
2022-11-13T01:48:43.164Z,38.74
2022-11-13T01:49:43.282Z,38.96
2022-11-13T01:50:43.412Z,38.77
2022-11-13T01:51:43.606Z,38.77
2022-11-13T01:52:43.680Z,38.70
2022-11-13T01:53:43.834Z,38.85
2022-11-13T01:54:43.932Z,38.85
2022-11-13T01:55:44.059Z,38.85
2022-11-13T01:56:44.219Z,38.77
2022-11-13T01:57:44.370Z,38.63
2022-11-13T01:58:44.440Z,38.67
2022-11-13T01:59:44.619Z,38.56
2022-11-13T02:00:44.728Z,38.52
2022-11-13T02:01:44.915Z,38.60
2022-11-13T02:02:44.978Z,38.56
2022-11-13T02:03:45.121Z,38.67
2022-11-13T02:04:45.293Z,38.42
2022-11-13T02:05:45.378Z,38.42
2022-11-13T02:06:45.608Z,38.38
2022-11-13T02:07:45.687Z,38.63
2022-11-13T02:08:45.777Z,38.35
2022-11-13T02:09:45.908Z,38.31
2022-11-13T02:10:46.027Z,38.49
2022-11-13T02:11:46.167Z,38.45
2022-11-13T02:12:46.352Z,38.24
2022-11-13T02:13:46.429Z,38.31
2022-11-13T02:14:46.575Z,38.42
2022-11-13T02:15:46.678Z,38.63
2022-11-13T02:16:46.824Z,38.52
2022-11-13T02:17:47.506Z,38.77
2022-11-13T02:18:47.055Z,38.74
2022-11-13T02:19:47.226Z,38.77
2022-11-13T02:20:47.324Z,38.92
2022-11-13T02:21:47.480Z,39.21
2022-11-13T02:22:47.613Z,39.06
2022-11-13T02:23:47.774Z,39.14
2022-11-13T02:24:50.956Z,39.14
2022-11-13T02:25:49.002Z,39.14
2022-11-13T02:26:48.130Z,39.21
2022-11-13T02:27:48.312Z,39.28
2022-11-13T02:28:48.400Z,39.43
2022-11-13T02:29:48.545Z,39.40
2022-11-13T02:30:48.689Z,39.21
2022-11-13T02:31:48.812Z,39.43
2022-11-13T02:32:48.960Z,39.40
2022-11-13T02:33:49.129Z,39.51
2022-11-13T02:34:49.229Z,39.32
2022-11-13T02:35:49.366Z,39.36
2022-11-13T02:36:49.489Z,39.47
2022-11-13T02:37:49.630Z,39.85
2022-11-13T02:38:49.762Z,39.54
2022-11-13T02:39:49.903Z,39.58
2022-11-13T02:40:50.027Z,39.43
2022-11-13T02:41:50.151Z,39.62
2022-11-13T02:42:50.361Z,39.54
2022-11-13T02:43:50.481Z,39.70
2022-11-13T02:44:50.566Z,39.92
2022-11-13T02:45:50.700Z,39.92
2022-11-13T02:46:50.843Z,40.15
2022-11-13T02:47:51.051Z,40.31
2022-11-13T02:48:51.129Z,40.23
2022-11-13T02:49:51.238Z,40.50
2022-11-13T02:50:51.368Z,40.58
2022-11-13T02:51:51.508Z,40.66
2022-11-13T02:52:51.702Z,41.14
2022-11-13T02:53:51.792Z,41.18
2022-11-13T02:54:51.946Z,41.02
2022-11-13T02:55:52.067Z,41.51
2022-11-13T02:56:52.187Z,41.55
2022-11-13T02:57:52.400Z,41.68
2022-11-13T02:58:52.490Z,41.68
2022-11-13T02:59:52.598Z,42.01
2022-11-13T03:00:52.727Z,42.05
2022-11-13T03:01:52.879Z,42.22
2022-11-13T03:02:53.029Z,42.61
2022-11-13T03:03:57.710Z,42.74
2022-11-13T03:05:54.378Z,43.19
2022-11-13T03:06:53.512Z,43.23
2022-11-13T03:07:53.705Z,43.23
2022-11-13T03:08:53.793Z,43.05
2022-11-13T03:09:53.922Z,43.01
2022-11-13T03:10:54.064Z,43.32
2022-11-13T03:11:54.212Z,42.92
2022-11-13T03:12:54.372Z,42.66
2022-11-13T03:13:54.461Z,43.01
2022-11-13T03:14:54.599Z,42.96
2022-11-13T03:15:54.702Z,42.92
2022-11-13T03:16:54.838Z,42.66
2022-11-13T03:17:54.988Z,42.48
2022-11-13T03:18:55.267Z,42.61
2022-11-13T03:19:55.257Z,42.48
2022-11-13T03:20:55.401Z,42.74
2022-11-13T03:21:55.554Z,42.66
2022-11-13T03:22:55.680Z,42.74
2022-11-13T03:23:55.851Z,42.70
2022-11-13T03:24:55.950Z,42.70
2022-11-13T03:25:56.077Z,42.88
2022-11-13T03:26:56.209Z,42.70
2022-11-13T03:27:56.412Z,43.14
2022-11-13T03:28:56.481Z,43.32
2022-11-13T03:29:56.568Z,42.88
2022-11-13T03:30:56.702Z,42.96
2022-11-13T03:31:56.848Z,43.05
2022-11-13T03:32:56.993Z,43.19
2022-11-13T03:33:57.148Z,43.50
2022-11-13T03:34:57.267Z,43.77
2022-11-13T03:35:57.367Z,43.68
2022-11-13T03:36:57.515Z,43.82
2022-11-13T03:37:57.640Z,43.96
2022-11-13T03:38:57.796Z,44.00
2022-11-13T03:39:57.888Z,44.43
2022-11-13T03:40:58.044Z,44.57
2022-11-13T03:41:58.152Z,44.62
2022-11-13T03:42:58.285Z,44.76
2022-11-13T03:43:58.444Z,44.76
2022-11-13T03:44:58.555Z,45.05
2022-11-13T03:45:58.676Z,44.85
2022-11-13T03:46:58.820Z,44.81
2022-11-13T03:47:58.995Z,45.15
2022-11-13T03:48:59.098Z,44.90
2022-11-13T03:49:59.243Z,44.66
2022-11-13T03:50:59.329Z,45.05
2022-11-13T03:51:59.443Z,44.52
2022-11-13T03:52:59.572Z,44.57
2022-11-13T03:53:59.693Z,44.85
2022-11-13T03:54:59.891Z,44.76
2022-11-13T03:55:59.959Z,44.47
2022-11-13T03:57:00.103Z,44.38
2022-11-13T03:58:00.213Z,44.33
2022-11-13T03:59:00.359Z,44.19
2022-11-13T04:00:00.526Z,44.57
2022-11-13T04:01:00.620Z,44.47
2022-11-13T04:02:00.791Z,44.24
2022-11-13T04:03:00.901Z,44.43
2022-11-13T04:04:01.028Z,44.24
2022-11-13T04:05:01.189Z,45.15
2022-11-13T04:06:01.297Z,45.10
2022-11-13T04:07:01.460Z,45.44
2022-11-13T04:08:01.548Z,45.54
2022-11-13T04:09:01.662Z,45.64
2022-11-13T04:10:01.838Z,45.79
2022-11-13T04:11:01.906Z,45.94
2022-11-13T04:12:02.035Z,46.50
2022-11-13T04:13:02.178Z,46.82
2022-11-13T04:14:02.455Z,46.40
2022-11-13T04:15:02.480Z,46.94
2022-11-13T04:16:02.578Z,46.92
2022-11-13T04:17:02.694Z,46.97
2022-11-13T04:18:02.834Z,46.56
2022-11-13T04:19:02.953Z,46.76
2022-11-13T04:20:03.091Z,46.14
2022-11-13T04:21:03.304Z,46.40
2022-11-13T04:22:03.361Z,45.94
2022-11-13T04:23:03.512Z,46.35
2022-11-13T04:24:03.614Z,45.64
2022-11-13T04:25:03.795Z,45.39
2022-11-13T04:26:03.871Z,45.34
2022-11-13T04:27:04.014Z,45.29
2022-11-13T04:28:05.193Z,45.69
2022-11-13T04:29:04.304Z,45.59
2022-11-13T04:30:04.443Z,45.44
2022-11-13T04:31:04.546Z,45.44
2022-11-13T04:32:04.681Z,45.54
2022-11-13T04:33:04.876Z,45.39
2022-11-13T04:34:04.994Z,45.19
2022-11-13T04:35:05.113Z,45.34
2022-11-13T04:36:05.256Z,45.34
2022-11-13T04:37:05.332Z,45.29
2022-11-13T04:38:05.479Z,45.39
2022-11-13T04:39:05.619Z,45.44
2022-11-13T04:40:05.798Z,45.19
2022-11-13T04:41:05.882Z,45.29
2022-11-13T04:42:06.013Z,45.34
2022-11-13T04:43:06.143Z,45.39
2022-11-13T04:44:06.261Z,45.39
2022-11-13T04:45:06.432Z,45.44
2022-11-13T04:46:06.527Z,45.24
2022-11-13T04:47:06.649Z,45.49
2022-11-13T04:48:06.899Z,45.39
2022-11-13T04:49:06.940Z,45.44
2022-11-13T04:50:07.069Z,45.54
2022-11-13T04:51:07.453Z,45.49
2022-11-13T04:52:07.328Z,45.64
2022-11-13T04:53:07.480Z,45.69
2022-11-13T04:54:07.627Z,45.99
2022-11-13T04:55:07.769Z,45.99
2022-11-13T04:56:07.929Z,45.99
2022-11-13T04:57:07.987Z,45.99
2022-11-13T04:58:08.147Z,46.09
2022-11-13T04:59:08.257Z,46.25
2022-11-13T05:00:08.385Z,46.40
2022-11-13T05:01:08.593Z,46.40
2022-11-13T05:02:08.715Z,46.50
2022-11-13T05:03:08.792Z,46.56
2022-11-13T05:04:08.944Z,46.56
2022-11-13T05:05:09.042Z,46.35
2022-11-13T05:06:09.195Z,46.61
2022-11-13T05:07:09.357Z,46.35
2022-11-13T05:08:09.413Z,46.66
2022-11-13T05:09:09.566Z,46.35
2022-11-13T05:10:09.704Z,46.56
2022-11-13T05:11:09.864Z,46.35
2022-11-13T05:12:09.966Z,46.61
2022-11-13T05:13:10.111Z,46.40
2022-11-13T05:14:10.267Z,46.66
2022-11-13T05:15:10.362Z,46.66
2022-11-13T05:16:10.562Z,46.45
2022-11-13T05:17:10.651Z,46.76
2022-11-13T05:18:10.799Z,46.61
2022-11-13T05:19:10.933Z,46.92
2022-11-13T05:20:11.087Z,46.71
2022-11-13T05:21:11.202Z,46.66
2022-11-13T05:22:11.348Z,46.40
2022-11-13T05:23:11.438Z,46.30
2022-11-13T05:24:11.577Z,46.09
2022-11-13T05:25:11.710Z,46.09
2022-11-13T05:26:11.877Z,46.04
2022-11-13T05:27:17.018Z,46.14
2022-11-13T05:28:16.149Z,45.99
2022-11-13T05:29:12.237Z,45.94
2022-11-13T05:30:12.409Z,45.99
2022-11-13T05:31:12.568Z,46.04
2022-11-13T05:32:12.672Z,45.94
2022-11-13T05:33:12.802Z,46.19
2022-11-13T05:34:12.935Z,46.09
2022-11-13T05:35:13.075Z,46.14
2022-11-13T05:36:13.259Z,46.09
2022-11-13T05:37:13.355Z,46.45
2022-11-13T05:38:13.466Z,46.19
2022-11-13T05:39:13.606Z,46.14
2022-11-13T05:40:13.753Z,46.30
2022-11-13T05:41:13.934Z,46.50
2022-11-13T05:42:14.003Z,46.40
2022-11-13T05:43:14.133Z,46.61
2022-11-13T05:44:14.273Z,46.66
2022-11-13T05:45:14.417Z,47.05
2022-11-13T05:46:14.611Z,47.10
2022-11-13T05:47:14.701Z,47.29
2022-11-13T05:48:14.854Z,47.62
2022-11-13T05:49:14.984Z,47.51
2022-11-13T05:50:15.113Z,47.78
2022-11-13T05:51:15.299Z,48.00
2022-11-13T05:52:15.384Z,48.42
2022-11-13T05:53:15.529Z,48.61
2022-11-13T05:54:15.650Z,49.07
2022-11-13T05:55:15.769Z,49.19
2022-11-13T05:56:15.937Z,49.54
2022-11-13T05:57:16.051Z,50.10
2022-11-13T05:58:16.151Z,50.47
2022-11-13T05:59:16.238Z,51.12
2022-11-13T06:00:16.379Z,51.62
2022-11-13T06:01:16.509Z,52.20
2022-11-13T06:02:16.720Z,52.50
2022-11-13T06:03:16.770Z,52.83
2022-11-13T06:04:16.926Z,52.76
2022-11-13T06:05:17.016Z,52.80
2022-11-13T06:06:17.147Z,52.66
2022-11-13T06:07:17.395Z,52.60
2022-11-13T06:08:17.435Z,52.47
2022-11-13T06:09:17.574Z,52.50
2022-11-13T06:10:17.707Z,52.60
2022-11-13T06:11:17.837Z,52.27
2022-11-13T06:12:17.978Z,52.30
2022-11-13T06:13:18.136Z,52.17
2022-11-13T06:14:18.227Z,52.14
2022-11-13T06:15:18.391Z,52.10
2022-11-13T06:16:18.483Z,52.04
2022-11-13T06:17:18.625Z,52.04
2022-11-13T06:18:22.495Z,52.04
2022-11-13T06:19:19.886Z,52.20
2022-11-13T06:20:19.004Z,52.20
2022-11-13T06:21:19.155Z,52.20
2022-11-13T06:22:19.318Z,52.27
2022-11-13T06:23:19.572Z,52.24
2022-11-13T06:24:19.553Z,52.30
2022-11-13T06:25:19.691Z,52.30
2022-11-13T06:26:19.814Z,52.37
2022-11-13T06:27:19.941Z,52.47
2022-11-13T06:28:20.111Z,52.70
2022-11-13T06:29:20.210Z,52.73
2022-11-13T06:30:20.312Z,52.76
2022-11-13T06:31:20.450Z,52.97
2022-11-13T06:32:20.588Z,52.93
2022-11-13T06:33:20.782Z,52.90
2022-11-13T06:34:20.850Z,52.97
2022-11-13T06:35:21.184Z,53.20
2022-11-13T06:36:21.128Z,53.10
2022-11-13T06:37:21.270Z,53.07
2022-11-13T06:38:21.452Z,53.17
2022-11-13T06:39:21.593Z,53.07
2022-11-13T06:40:21.650Z,53.13
2022-11-13T06:41:21.781Z,53.07
2022-11-13T06:42:21.952Z,52.93
2022-11-13T06:43:22.067Z,52.97
2022-11-13T06:44:22.228Z,52.66
2022-11-13T06:45:22.313Z,52.33
2022-11-13T06:46:22.455Z,52.73
2022-11-13T06:47:22.607Z,52.47
2022-11-13T06:48:22.696Z,52.43
2022-11-13T06:49:22.875Z,52.63
2022-11-13T06:50:22.998Z,52.60
2022-11-13T06:51:23.120Z,52.86
2022-11-13T06:52:23.215Z,52.47
2022-11-13T06:53:23.323Z,52.70
2022-11-13T06:54:23.474Z,52.53
2022-11-13T06:55:23.584Z,52.53
2022-11-13T06:56:23.684Z,52.53
2022-11-13T06:57:23.796Z,52.47
2022-11-13T06:58:23.936Z,52.40
2022-11-13T06:59:24.091Z,52.40
2022-11-13T07:00:24.194Z,52.47
2022-11-13T07:01:24.364Z,52.47
2022-11-13T07:02:24.563Z,52.37
2022-11-13T07:03:24.583Z,52.63
2022-11-13T07:04:24.801Z,52.47
2022-11-13T07:05:24.790Z,52.20
2022-11-13T07:06:25.030Z,52.50
2022-11-13T07:07:25.121Z,52.27
2022-11-13T07:08:25.297Z,52.20
2022-11-13T07:09:25.378Z,52.30
2022-11-13T07:10:25.479Z,52.17
2022-11-13T07:11:25.589Z,52.30
2022-11-13T07:12:25.690Z,52.17
2022-11-13T07:13:25.819Z,52.27
2022-11-13T07:14:26.001Z,52.10
2022-11-13T07:15:26.091Z,52.20
2022-11-13T07:16:31.269Z,52.24
2022-11-13T07:17:27.370Z,52.14
2022-11-13T07:18:26.882Z,52.10
2022-11-13T07:19:26.686Z,52.24
2022-11-13T07:20:26.799Z,52.07
2022-11-13T07:21:26.895Z,52.14
2022-11-13T07:22:27.039Z,52.01
2022-11-13T07:23:27.166Z,52.10
2022-11-13T07:24:27.822Z,52.01
2022-11-13T07:25:27.439Z,52.17
2022-11-13T07:26:27.634Z,52.20
2022-11-13T07:27:27.714Z,52.17
2022-11-13T07:28:28.214Z,52.24
2022-11-13T07:29:28.025Z,52.24
2022-11-13T07:30:28.176Z,52.17
2022-11-13T07:31:28.237Z,52.10
2022-11-13T07:32:28.377Z,52.20
2022-11-13T07:33:28.526Z,52.17
2022-11-13T07:34:28.748Z,52.14
2022-11-13T07:35:28.802Z,52.07
2022-11-13T07:36:28.943Z,52.17
2022-11-13T07:37:29.064Z,52.17
2022-11-13T07:38:29.362Z,52.14
2022-11-13T07:39:29.361Z,52.01
2022-11-13T07:40:29.541Z,52.07
2022-11-13T07:41:29.621Z,51.91
2022-11-13T07:42:29.750Z,51.91
2022-11-13T07:43:29.894Z,51.81
2022-11-13T07:44:53.655Z,51.75
2022-11-13T07:45:32.130Z,51.81
2022-11-13T07:46:30.361Z,51.69
2022-11-13T07:47:30.440Z,51.69
2022-11-13T07:48:30.836Z,51.53
2022-11-13T07:49:30.734Z,51.37
2022-11-13T07:50:30.889Z,51.27
2022-11-13T07:51:30.979Z,51.12
2022-11-13T07:52:31.109Z,51.37
2022-11-13T07:53:31.241Z,51.49
2022-11-13T07:54:31.368Z,51.05
2022-11-13T07:55:31.570Z,51.18
2022-11-13T07:56:31.642Z,51.21
2022-11-13T07:57:31.770Z,51.12
2022-11-13T07:58:32.137Z,51.12
2022-11-13T07:59:32.026Z,51.18
2022-11-13T08:00:32.245Z,51.05
2022-11-13T08:01:32.389Z,51.02
2022-11-13T08:02:32.437Z,51.37
2022-11-13T08:03:32.598Z,51.18
2022-11-13T08:04:32.707Z,51.05
2022-11-13T08:05:32.878Z,51.08
2022-11-13T08:06:32.991Z,51.08
2022-11-13T08:07:33.100Z,51.24
2022-11-13T08:08:33.216Z,51.21
2022-11-13T08:09:33.349Z,51.05
2022-11-13T08:10:33.511Z,51.12
2022-11-13T08:11:33.580Z,51.12
2022-11-13T08:12:33.724Z,50.93
2022-11-13T08:13:33.855Z,50.96
2022-11-13T08:14:34.064Z,50.80
2022-11-13T08:15:34.107Z,50.65
2022-11-13T08:16:34.264Z,50.68
2022-11-13T08:17:34.372Z,50.56
2022-11-13T08:18:34.513Z,50.96
2022-11-13T08:19:34.643Z,50.83
2022-11-13T08:20:34.767Z,50.87
2022-11-13T08:21:34.942Z,50.62
2022-11-13T08:22:35.034Z,50.74
2022-11-13T08:23:35.170Z,50.68
2022-11-13T08:24:35.313Z,50.59
2022-11-13T08:25:35.451Z,50.56
2022-11-13T08:26:35.642Z,50.68
2022-11-13T08:27:35.708Z,50.65
2022-11-13T08:28:35.847Z,50.53
2022-11-13T08:29:35.989Z,50.40
2022-11-13T08:30:36.130Z,50.44
2022-11-13T08:31:36.300Z,50.34
2022-11-13T08:32:36.401Z,50.25
2022-11-13T08:33:36.547Z,50.34
2022-11-13T08:34:36.730Z,50.34
2022-11-13T08:35:36.833Z,51.05
2022-11-13T08:36:37.243Z,50.96
2022-11-13T08:37:37.878Z,51.18
2022-11-13T08:38:37.168Z,51.75
2022-11-13T08:39:37.320Z,52.24
2022-11-13T08:40:37.452Z,53.17
2022-11-13T08:41:37.615Z,53.68
2022-11-13T08:42:37.717Z,54.67
2022-11-13T08:43:37.844Z,55.58
2022-11-13T08:44:37.967Z,56.21
2022-11-13T08:45:38.095Z,57.57
2022-11-13T08:46:38.367Z,58.87
2022-11-13T08:47:38.356Z,59.67
2022-11-13T08:48:38.478Z,59.88
2022-11-13T08:49:38.597Z,60.10
2022-11-13T08:50:38.744Z,60.01
2022-11-13T08:51:38.936Z,60.06
2022-11-13T08:52:39.008Z,60.58
2022-11-13T08:53:39.164Z,60.80
2022-11-13T08:54:39.276Z,61.84
2022-11-13T08:55:39.415Z,62.02
2022-11-13T08:56:39.595Z,63.44
2022-11-13T08:57:39.685Z,65.99
2022-11-13T08:58:39.813Z,68.88
2022-11-13T08:59:39.962Z,72.10
2022-11-13T09:00:40.149Z,74.68
2022-11-13T09:01:40.283Z,77.74
2022-11-13T09:02:40.451Z,80.36
2022-11-13T09:03:40.615Z,82.67
2022-11-13T09:04:40.643Z,84.77
2022-11-13T09:05:40.784Z,87.34
2022-11-13T09:06:41.207Z,90.37
2022-11-13T09:07:41.056Z,94.57
2022-11-13T09:08:41.209Z,97.99
2022-11-13T09:09:41.331Z,102.31
2022-11-13T09:10:41.439Z,101.69
2022-11-13T09:11:41.566Z,106.76
2022-11-13T09:12:41.694Z,109.57
2022-11-13T09:13:45.141Z,107.18
2022-11-13T09:14:42.940Z,105.68
2022-11-13T09:15:42.030Z,104.69
2022-11-13T09:16:42.170Z,109.79
2022-11-13T09:17:42.287Z,115.01
2022-11-13T09:18:42.390Z,118.69
2022-11-13T09:19:42.506Z,123.70
2022-11-13T09:20:42.607Z,127.09
2022-11-13T09:21:42.826Z,135.01
2022-11-13T09:22:42.844Z,138.26
2022-11-13T09:23:42.998Z,136.00
2022-11-13T09:24:43.077Z,140.59
2022-11-13T09:25:43.207Z,145.23
2022-11-13T09:26:43.406Z,142.14
2022-11-13T09:27:43.449Z,146.12
2022-11-13T09:28:43.587Z,148.86
2022-11-13T09:29:43.774Z,139.41
2022-11-13T09:30:43.865Z,134.68
2022-11-13T09:31:43.975Z,127.68
2022-11-13T09:32:44.087Z,126.42
2022-11-13T09:33:44.240Z,119.71
2022-11-13T09:34:44.320Z,121.63
2022-11-13T09:35:44.495Z,123.70
2022-11-13T09:36:44.632Z,122.97
2022-11-13T09:37:44.645Z,124.25
2022-11-13T09:38:44.743Z,126.80
2022-11-13T09:39:44.861Z,124.53
2022-11-13T09:40:44.969Z,125.00
2022-11-13T09:41:45.091Z,121.28
2022-11-13T09:42:45.220Z,122.43
2022-11-13T09:43:45.314Z,129.66
2022-11-13T09:44:45.479Z,128.96
2022-11-13T09:45:45.609Z,124.72
2022-11-13T09:46:45.831Z,136.45
2022-11-13T09:47:45.823Z,138.71
2022-11-13T09:48:45.990Z,139.76
2022-11-13T09:49:46.132Z,140.94
2022-11-13T09:50:46.242Z,141.42
2022-11-13T09:51:46.361Z,150.07
2022-11-13T09:52:46.482Z,170.80
2022-11-13T09:53:46.583Z,189.26
2022-11-13T09:54:46.702Z,211.46
2022-11-13T09:55:46.804Z,232.60
2022-11-13T09:56:46.911Z,246.03
2022-11-13T09:57:47.064Z,254.42
2022-11-13T09:58:47.108Z,261.31
2022-11-13T09:59:47.198Z,264.68
2022-11-13T10:00:47.472Z,271.92
2022-11-13T10:01:47.547Z,275.81
2022-11-13T10:02:47.587Z,278.86
2022-11-13T10:04:01.443Z,282.70
2022-11-13T10:04:48.858Z,288.42
2022-11-13T10:05:48.001Z,287.15
2022-11-13T10:06:48.297Z,292.79
2022-11-13T10:07:48.247Z,307.61
2022-11-13T10:08:48.347Z,321.79
2022-11-13T10:09:48.466Z,330.55
2022-11-13T10:10:54.901Z,340.85
2022-11-13T10:11:49.701Z,350.68
2022-11-13T10:12:48.797Z,359.52
2022-11-13T10:13:48.904Z,363.10
2022-11-13T10:14:48.997Z,363.90
2022-11-13T10:15:49.177Z,365.12
2022-11-13T10:16:49.286Z,376.00
2022-11-13T10:17:49.424Z,387.69
2022-11-13T10:18:49.540Z,384.79
2022-11-13T10:19:49.634Z,383.68
2022-11-13T10:20:49.781Z,374.28
2022-11-13T10:21:52.259Z,369.64
2022-11-13T10:22:51.106Z,375.57
2022-11-13T10:23:50.199Z,385.45
2022-11-13T10:24:50.292Z,387.92
2022-11-13T10:25:50.423Z,390.65
2022-11-13T10:26:50.562Z,389.73
2022-11-13T10:27:50.673Z,392.25
2022-11-13T10:28:51.642Z,392.02
2022-11-13T10:29:50.861Z,371.32
2022-11-13T10:30:50.982Z,343.70
2022-11-13T10:31:51.091Z,339.43
2022-11-13T10:32:51.245Z,338.39
2022-11-13T10:33:51.361Z,335.62
2022-11-13T10:34:51.481Z,327.25
2022-11-13T10:35:51.579Z,332.55
2022-11-13T10:36:51.719Z,355.24
2022-11-13T10:37:51.990Z,374.71
2022-11-13T10:38:51.944Z,389.73
2022-11-13T10:39:52.053Z,388.14
2022-11-13T10:40:52.161Z,372.16
2022-11-13T10:41:52.263Z,351.43
2022-11-13T10:42:52.467Z,362.30
2022-11-13T10:43:52.518Z,364.31
2022-11-13T10:44:52.660Z,382.80
2022-11-13T10:45:52.758Z,390.19
2022-11-13T10:46:52.968Z,375.14
2022-11-13T10:48:08.194Z,374.28
2022-11-13T10:48:54.141Z,388.37
2022-11-13T10:49:53.225Z,405.12
2022-11-13T10:50:53.430Z,422.85
2022-11-13T10:51:53.515Z,436.12
2022-11-13T10:52:53.665Z,441.03
2022-11-13T10:53:53.764Z,440.73
2022-11-13T10:54:53.918Z,440.44
2022-11-13T10:55:54.026Z,445.15
2022-11-13T10:56:54.070Z,440.73
2022-11-13T10:57:56.506Z,437.55
2022-11-13T10:58:54.399Z,446.04
2022-11-13T10:59:54.398Z,453.94
2022-11-13T11:00:54.545Z,458.93
2022-11-13T11:01:54.639Z,459.88
2022-11-13T11:02:54.843Z,454.86
2022-11-13T11:03:54.898Z,452.09
2022-11-13T11:04:55.003Z,453.32
2022-11-13T11:05:55.105Z,466.64
2022-11-13T11:07:56.436Z,473.60
2022-11-13T11:08:55.426Z,482.86
2022-11-13T11:09:55.612Z,492.13
2022-11-13T11:10:55.694Z,500.62
2022-11-13T11:11:55.785Z,508.26
2022-11-13T11:12:56.263Z,507.87
2022-11-13T11:13:56.045Z,512.95
2022-11-13T11:14:56.174Z,510.20
2022-11-13T11:15:56.285Z,513.74
2022-11-13T11:16:56.392Z,502.89
2022-11-13T11:17:56.523Z,504.41
2022-11-13T11:18:56.632Z,501.76
2022-11-13T11:19:56.743Z,505.18
2022-11-13T11:20:56.842Z,506.71
2022-11-13T11:21:56.954Z,518.94
2022-11-13T11:22:57.085Z,524.24
2022-11-13T11:23:57.208Z,519.34
2022-11-13T11:24:57.299Z,521.78
2022-11-13T11:25:57.414Z,523.83
2022-11-13T11:26:57.501Z,527.56
2022-11-13T11:27:57.681Z,538.20
2022-11-13T11:28:57.770Z,546.58
2022-11-13T11:29:57.946Z,550.19
2022-11-13T11:30:58.071Z,560.36
2022-11-13T11:31:58.204Z,562.73
2022-11-13T11:32:58.342Z,563.68
2022-11-13T11:33:58.431Z,582.39
2022-11-13T11:34:59.434Z,589.60
2022-11-13T11:35:58.649Z,590.12
2022-11-13T11:36:58.757Z,598.59
2022-11-13T11:37:58.913Z,608.98
2022-11-13T11:38:59.018Z,604.56
2022-11-13T11:39:59.121Z,602.38
2022-11-13T11:40:59.236Z,594.33
2022-11-13T11:41:59.349Z,591.16
2022-11-13T11:42:59.486Z,583.92
2022-11-13T11:43:59.578Z,583.92
2022-11-13T11:44:59.677Z,588.55
2022-11-13T11:45:59.792Z,588.55
2022-11-13T11:46:59.907Z,585.45
2022-11-13T11:48:00.082Z,574.86
2022-11-13T11:49:00.132Z,579.35
2022-11-13T11:50:00.253Z,565.11
2022-11-13T11:51:00.397Z,519.74
2022-11-13T11:52:00.527Z,534.75
2022-11-13T11:53:00.651Z,537.34
2022-11-13T11:54:00.758Z,540.82
2022-11-13T11:55:00.900Z,523.42
2022-11-13T11:56:00.977Z,537.77
2022-11-13T11:57:01.108Z,544.35
2022-11-13T11:58:01.364Z,558.02
2022-11-13T11:59:01.394Z,558.02
2022-11-13T12:00:01.517Z,546.58
2022-11-13T12:01:01.624Z,555.69
2022-11-13T12:02:01.730Z,543.02
2022-11-13T12:03:01.906Z,537.77
2022-11-13T12:04:02.038Z,533.47
2022-11-13T12:05:02.204Z,531.34
2022-11-13T12:06:02.291Z,494.32
2022-11-13T12:07:02.517Z,501.00
2022-11-13T12:08:02.616Z,492.86
2022-11-13T12:09:02.679Z,491.04
2022-11-13T12:10:02.815Z,496.52
2022-11-13T12:11:02.961Z,504.79
2022-11-13T12:12:03.014Z,507.10
2022-11-13T12:13:03.135Z,495.79
2022-11-13T12:14:03.510Z,504.41
2022-11-13T12:15:03.349Z,502.13
2022-11-13T12:16:03.485Z,488.52
2022-11-13T12:17:05.875Z,455.80
2022-11-13T12:18:04.777Z,404.14
2022-11-13T12:19:03.906Z,367.99
2022-11-13T12:20:03.930Z,382.14
2022-11-13T12:21:04.100Z,406.11
2022-11-13T12:22:04.207Z,420.18
2022-11-13T12:23:04.312Z,436.69
2022-11-13T12:24:04.433Z,434.70
2022-11-13T12:25:04.542Z,441.03
2022-11-13T12:26:04.667Z,450.26
2022-11-13T12:27:04.855Z,453.01
2022-11-13T12:28:04.919Z,442.20
2022-11-13T12:29:05.042Z,453.01
2022-11-13T12:30:05.148Z,463.72
2022-11-13T12:31:05.377Z,471.93
2022-11-13T12:32:05.391Z,484.97
2022-11-13T12:33:05.510Z,476.65
2022-11-13T12:34:05.679Z,465.67
2022-11-13T12:35:05.743Z,447.24
2022-11-13T12:36:05.868Z,469.60
2022-11-13T12:37:05.960Z,497.27
2022-11-13T12:38:06.112Z,505.18
2022-11-13T12:39:06.231Z,518.53
2022-11-13T12:40:06.360Z,528.39
2022-11-13T12:41:06.499Z,526.72
2022-11-13T12:42:06.617Z,530.92
2022-11-13T12:43:06.756Z,540.82
2022-11-13T12:44:06.879Z,549.74
2022-11-13T12:45:06.940Z,536.47
2022-11-13T12:46:07.059Z,543.02
2022-11-13T12:47:07.177Z,551.56
2022-11-13T12:48:07.268Z,529.65
2022-11-13T12:49:07.473Z,530.92